sensor_id;sensor_type;location;lat;lon;timestamp;temperature;humidity
15072;DHT22;7635;56.696;13.002;2023-08-06T00:00:20;12.40;99.90
15072;DHT22;7635;56.696;13.002;2023-08-06T00:02:47;12.30;99.90
15072;DHT22;7635;56.696;13.002;2023-08-06T00:05:14;12.20;99.90
15072;DHT22;7635;56.696;13.002;2023-08-06T00:07:43;12.20;99.90
15072;DHT22;7635;56.696;13.002;2023-08-06T00:10:11;12.20;99.90
15072;DHT22;7635;56.696;13.002;2023-08-06T00:12:38;12.10;99.90
15072;DHT22;7635;56.696;13.002;2023-08-06T00:15:05;12.10;99.90
15072;DHT22;7635;56.696;13.002;2023-08-06T00:17:33;12.00;99.90
15072;DHT22;7635;56.696;13.002;2023-08-06T00:20:00;11.90;99.90
15072;DHT22;7635;56.696;13.002;2023-08-06T00:22:30;11.90;99.90
15072;DHT22;7635;56.696;13.002;2023-08-06T00:24:57;11.90;99.90
15072;DHT22;7635;56.696;13.002;2023-08-06T00:27:25;11.80;99.90
15072;DHT22;7635;56.696;13.002;2023-08-06T00:29:52;11.80;99.90
15072;DHT22;7635;56.696;13.002;2023-08-06T00:32:19;11.80;99.90
15072;DHT22;7635;56.696;13.002;2023-08-06T00:34:46;11.80;99.90
15072;DHT22;7635;56.696;13.002;2023-08-06T00:37:15;11.70;99.90
15072;DHT22;7635;56.696;13.002;2023-08-06T00:39:41;11.70;99.90
15072;DHT22;7635;56.696;13.002;2023-08-06T00:42:08;11.70;99.90
15072;DHT22;7635;56.696;13.002;2023-08-06T00:44:36;11.60;99.90
15072;DHT22;7635;56.696;13.002;2023-08-06T00:47:03;11.60;99.90
15072;DHT22;7635;56.696;13.002;2023-08-06T00:49:30;11.60;99.90
15072;DHT22;7635;56.696;13.002;2023-08-06T00:51:57;11.60;99.90
15072;DHT22;7635;56.696;13.002;2023-08-06T00:54:25;11.60;99.90
15072;DHT22;7635;56.696;13.002;2023-08-06T00:56:53;11.60;99.90
15072;DHT22;7635;56.696;13.002;2023-08-06T00:59:20;11.60;99.90
15072;DHT22;7635;56.696;13.002;2023-08-06T01:01:48;11.60;99.90
15072;DHT22;7635;56.696;13.002;2023-08-06T01:04:15;11.50;99.90
15072;DHT22;7635;56.696;13.002;2023-08-06T01:06:45;11.50;99.90
15072;DHT22;7635;56.696;13.002;2023-08-06T01:09:27;11.50;99.90
15072;DHT22;7635;56.696;13.002;2023-08-06T01:12:01;11.50;99.90
15072;DHT22;7635;56.696;13.002;2023-08-06T01:14:37;11.50;99.90
15072;DHT22;7635;56.696;13.002;2023-08-06T01:17:08;11.50;99.90
15072;DHT22;7635;56.696;13.002;2023-08-06T01:19:36;11.50;99.90
15072;DHT22;7635;56.696;13.002;2023-08-06T01:22:04;11.50;99.90
15072;DHT22;7635;56.696;13.002;2023-08-06T01:24:31;11.40;99.90
15072;DHT22;7635;56.696;13.002;2023-08-06T01:27:06;11.40;99.90
15072;DHT22;7635;56.696;13.002;2023-08-06T01:29:39;11.50;99.90
15072;DHT22;7635;56.696;13.002;2023-08-06T01:32:10;11.50;99.90
15072;DHT22;7635;56.696;13.002;2023-08-06T01:34:40;11.50;99.90
15072;DHT22;7635;56.696;13.002;2023-08-06T01:37:09;11.50;99.90
15072;DHT22;7635;56.696;13.002;2023-08-06T01:39:36;11.50;99.90
15072;DHT22;7635;56.696;13.002;2023-08-06T01:42:03;11.50;99.90
15072;DHT22;7635;56.696;13.002;2023-08-06T01:44:30;11.40;99.90
15072;DHT22;7635;56.696;13.002;2023-08-06T01:46:57;11.40;99.90
15072;DHT22;7635;56.696;13.002;2023-08-06T01:49:23;11.40;99.90
15072;DHT22;7635;56.696;13.002;2023-08-06T01:51:50;11.40;99.90
15072;DHT22;7635;56.696;13.002;2023-08-06T01:54:18;11.40;99.90
15072;DHT22;7635;56.696;13.002;2023-08-06T01:56:45;11.30;99.90
15072;DHT22;7635;56.696;13.002;2023-08-06T01:59:11;11.30;99.90
15072;DHT22;7635;56.696;13.002;2023-08-06T02:01:38;11.30;99.90
15072;DHT22;7635;56.696;13.002;2023-08-06T02:04:05;11.20;99.90
15072;DHT22;7635;56.696;13.002;2023-08-06T02:06:31;11.20;99.90
15072;DHT22;7635;56.696;13.002;2023-08-06T02:08:58;11.20;99.90
15072;DHT22;7635;56.696;13.002;2023-08-06T02:11:26;11.20;99.90
15072;DHT22;7635;56.696;13.002;2023-08-06T02:13:53;11.20;99.90
15072;DHT22;7635;56.696;13.002;2023-08-06T02:16:20;11.20;99.90
15072;DHT22;7635;56.696;13.002;2023-08-06T02:18:46;11.20;99.90
15072;DHT22;7635;56.696;13.002;2023-08-06T02:21:13;11.20;99.90
15072;DHT22;7635;56.696;13.002;2023-08-06T02:23:40;11.20;99.90
15072;DHT22;7635;56.696;13.002;2023-08-06T02:26:10;11.30;99.90
15072;DHT22;7635;56.696;13.002;2023-08-06T02:28:38;11.30;99.90
15072;DHT22;7635;56.696;13.002;2023-08-06T02:31:04;11.30;99.90
15072;DHT22;7635;56.696;13.002;2023-08-06T02:33:32;11.30;99.90
15072;DHT22;7635;56.696;13.002;2023-08-06T02:35:59;11.30;99.90
15072;DHT22;7635;56.696;13.002;2023-08-06T02:38:27;11.30;99.90
15072;DHT22;7635;56.696;13.002;2023-08-06T02:40:53;11.20;99.90
15072;DHT22;7635;56.696;13.002;2023-08-06T02:43:20;11.10;99.90
15072;DHT22;7635;56.696;13.002;2023-08-06T02:45:48;11.10;99.90
15072;DHT22;7635;56.696;13.002;2023-08-06T02:48:15;11.10;99.90
15072;DHT22;7635;56.696;13.002;2023-08-06T02:50:43;11.10;99.90
15072;DHT22;7635;56.696;13.002;2023-08-06T02:53:10;11.00;99.90
15072;DHT22;7635;56.696;13.002;2023-08-06T02:55:37;11.00;99.90
15072;DHT22;7635;56.696;13.002;2023-08-06T02:58:03;10.90;99.90
15072;DHT22;7635;56.696;13.002;2023-08-06T03:00:30;10.90;99.90
15072;DHT22;7635;56.696;13.002;2023-08-06T03:02:58;10.80;99.90
15072;DHT22;7635;56.696;13.002;2023-08-06T03:05:25;10.80;99.90
15072;DHT22;7635;56.696;13.002;2023-08-06T03:07:51;10.80;99.90
15072;DHT22;7635;56.696;13.002;2023-08-06T03:10:17;10.70;99.90
15072;DHT22;7635;56.696;13.002;2023-08-06T03:12:45;10.70;99.90
15072;DHT22;7635;56.696;13.002;2023-08-06T03:15:12;10.70;99.90
15072;DHT22;7635;56.696;13.002;2023-08-06T03:17:39;10.70;99.90
15072;DHT22;7635;56.696;13.002;2023-08-06T03:20:08;10.70;99.90
15072;DHT22;7635;56.696;13.002;2023-08-06T03:22:35;10.80;99.90
15072;DHT22;7635;56.696;13.002;2023-08-06T03:25:02;10.80;99.90
15072;DHT22;7635;56.696;13.002;2023-08-06T03:27:29;10.90;99.90
15072;DHT22;7635;56.696;13.002;2023-08-06T03:29:55;10.90;99.90
15072;DHT22;7635;56.696;13.002;2023-08-06T03:32:22;10.90;99.90
15072;DHT22;7635;56.696;13.002;2023-08-06T03:34:49;10.90;99.90
15072;DHT22;7635;56.696;13.002;2023-08-06T03:37:17;10.90;99.90
15072;DHT22;7635;56.696;13.002;2023-08-06T03:39:43;10.90;99.90
15072;DHT22;7635;56.696;13.002;2023-08-06T03:42:10;10.90;99.90
15072;DHT22;7635;56.696;13.002;2023-08-06T03:44:37;10.90;99.90
15072;DHT22;7635;56.696;13.002;2023-08-06T03:47:05;11.00;99.90
15072;DHT22;7635;56.696;13.002;2023-08-06T03:49:32;11.00;99.90
15072;DHT22;7635;56.696;13.002;2023-08-06T03:51:58;11.00;99.90
15072;DHT22;7635;56.696;13.002;2023-08-06T03:54:26;11.00;99.90
15072;DHT22;7635;56.696;13.002;2023-08-06T03:56:53;11.10;99.90
15072;DHT22;7635;56.696;13.002;2023-08-06T03:59:20;11.20;99.90
15072;DHT22;7635;56.696;13.002;2023-08-06T04:01:46;11.20;99.90
15072;DHT22;7635;56.696;13.002;2023-08-06T04:04:13;11.30;99.90
15072;DHT22;7635;56.696;13.002;2023-08-06T04:06:40;11.30;99.90
15072;DHT22;7635;56.696;13.002;2023-08-06T04:09:06;11.30;99.90
15072;DHT22;7635;56.696;13.002;2023-08-06T04:11:34;11.30;99.90
15072;DHT22;7635;56.696;13.002;2023-08-06T04:14:01;11.40;99.90
15072;DHT22;7635;56.696;13.002;2023-08-06T04:16:28;11.40;99.90
15072;DHT22;7635;56.696;13.002;2023-08-06T04:18:54;11.50;99.90
15072;DHT22;7635;56.696;13.002;2023-08-06T04:21:22;11.60;99.90
15072;DHT22;7635;56.696;13.002;2023-08-06T04:23:48;11.60;99.90
15072;DHT22;7635;56.696;13.002;2023-08-06T04:26:15;11.60;99.90
15072;DHT22;7635;56.696;13.002;2023-08-06T04:28:43;11.60;99.90
15072;DHT22;7635;56.696;13.002;2023-08-06T04:31:10;11.60;99.90
15072;DHT22;7635;56.696;13.002;2023-08-06T04:33:36;11.60;99.90
15072;DHT22;7635;56.696;13.002;2023-08-06T04:36:03;11.60;99.90
15072;DHT22;7635;56.696;13.002;2023-08-06T04:38:30;11.60;99.90
15072;DHT22;7635;56.696;13.002;2023-08-06T04:40:58;11.70;99.90
15072;DHT22;7635;56.696;13.002;2023-08-06T04:43:24;11.70;99.90
15072;DHT22;7635;56.696;13.002;2023-08-06T04:45:54;11.80;99.90
15072;DHT22;7635;56.696;13.002;2023-08-06T04:48:21;11.80;99.90
15072;DHT22;7635;56.696;13.002;2023-08-06T04:50:49;11.90;99.90
15072;DHT22;7635;56.696;13.002;2023-08-06T04:53:16;12.00;99.90
15072;DHT22;7635;56.696;13.002;2023-08-06T04:55:43;12.00;99.90
15072;DHT22;7635;56.696;13.002;2023-08-06T04:58:10;12.10;99.90
15072;DHT22;7635;56.696;13.002;2023-08-06T05:00:37;12.20;99.90
15072;DHT22;7635;56.696;13.002;2023-08-06T05:03:06;12.20;99.90
15072;DHT22;7635;56.696;13.002;2023-08-06T05:05:33;12.30;99.90
15072;DHT22;7635;56.696;13.002;2023-08-06T05:07:59;12.40;99.90
15072;DHT22;7635;56.696;13.002;2023-08-06T05:10:26;12.40;99.90
15072;DHT22;7635;56.696;13.002;2023-08-06T05:12:53;12.50;99.90
15072;DHT22;7635;56.696;13.002;2023-08-06T05:15:20;12.50;99.90
15072;DHT22;7635;56.696;13.002;2023-08-06T05:17:47;12.60;99.90
15072;DHT22;7635;56.696;13.002;2023-08-06T05:20:15;12.60;99.90
15072;DHT22;7635;56.696;13.002;2023-08-06T05:22:43;12.70;99.90
15072;DHT22;7635;56.696;13.002;2023-08-06T05:25:11;12.70;99.90
15072;DHT22;7635;56.696;13.002;2023-08-06T05:27:38;12.70;99.90
15072;DHT22;7635;56.696;13.002;2023-08-06T05:30:06;12.80;99.90
15072;DHT22;7635;56.696;13.002;2023-08-06T05:32:33;12.90;99.90
15072;DHT22;7635;56.696;13.002;2023-08-06T05:35:00;12.90;99.90
15072;DHT22;7635;56.696;13.002;2023-08-06T05:37:28;13.10;99.90
15072;DHT22;7635;56.696;13.002;2023-08-06T05:39:54;13.20;99.90
15072;DHT22;7635;56.696;13.002;2023-08-06T05:42:21;13.30;99.90
15072;DHT22;7635;56.696;13.002;2023-08-06T05:44:48;13.40;99.90
15072;DHT22;7635;56.696;13.002;2023-08-06T05:47:14;13.50;99.90
15072;DHT22;7635;56.696;13.002;2023-08-06T05:49:41;13.70;99.90
15072;DHT22;7635;56.696;13.002;2023-08-06T05:52:08;13.80;99.90
15072;DHT22;7635;56.696;13.002;2023-08-06T05:54:36;14.00;99.90
15072;DHT22;7635;56.696;13.002;2023-08-06T05:57:03;14.10;99.90
15072;DHT22;7635;56.696;13.002;2023-08-06T05:59:30;14.20;99.90
15072;DHT22;7635;56.696;13.002;2023-08-06T06:01:56;14.30;99.90
15072;DHT22;7635;56.696;13.002;2023-08-06T06:04:24;14.40;99.90
15072;DHT22;7635;56.696;13.002;2023-08-06T06:06:51;14.60;99.90
15072;DHT22;7635;56.696;13.002;2023-08-06T06:09:17;14.60;99.90
15072;DHT22;7635;56.696;13.002;2023-08-06T06:11:45;14.60;99.90
15072;DHT22;7635;56.696;13.002;2023-08-06T06:14:13;14.60;99.90
15072;DHT22;7635;56.696;13.002;2023-08-06T06:16:39;14.60;99.90
15072;DHT22;7635;56.696;13.002;2023-08-06T06:19:06;14.60;99.90
15072;DHT22;7635;56.696;13.002;2023-08-06T06:21:33;14.60;99.90
15072;DHT22;7635;56.696;13.002;2023-08-06T06:23:59;14.60;99.90
15072;DHT22;7635;56.696;13.002;2023-08-06T06:26:26;14.70;99.90
15072;DHT22;7635;56.696;13.002;2023-08-06T06:28:55;14.70;99.90
15072;DHT22;7635;56.696;13.002;2023-08-06T06:31:22;14.70;99.90
15072;DHT22;7635;56.696;13.002;2023-08-06T06:33:48;14.80;99.90
15072;DHT22;7635;56.696;13.002;2023-08-06T06:36:15;14.90;99.90
15072;DHT22;7635;56.696;13.002;2023-08-06T06:38:42;15.00;99.90
15072;DHT22;7635;56.696;13.002;2023-08-06T06:41:08;15.00;99.90
15072;DHT22;7635;56.696;13.002;2023-08-06T06:43:35;15.10;99.90
15072;DHT22;7635;56.696;13.002;2023-08-06T06:46:04;15.20;99.90
15072;DHT22;7635;56.696;13.002;2023-08-06T06:48:32;15.30;99.90
15072;DHT22;7635;56.696;13.002;2023-08-06T06:50:59;15.40;99.90
15072;DHT22;7635;56.696;13.002;2023-08-06T06:53:26;15.40;99.90
15072;DHT22;7635;56.696;13.002;2023-08-06T06:55:53;15.50;99.90
15072;DHT22;7635;56.696;13.002;2023-08-06T06:58:20;15.60;99.90
15072;DHT22;7635;56.696;13.002;2023-08-06T07:00:47;15.70;99.90
15072;DHT22;7635;56.696;13.002;2023-08-06T07:03:15;15.80;99.90
15072;DHT22;7635;56.696;13.002;2023-08-06T07:05:43;15.80;99.90
15072;DHT22;7635;56.696;13.002;2023-08-06T07:08:10;15.90;99.90
15072;DHT22;7635;56.696;13.002;2023-08-06T07:10:37;16.00;99.90
15072;DHT22;7635;56.696;13.002;2023-08-06T07:13:04;16.10;99.90
15072;DHT22;7635;56.696;13.002;2023-08-06T07:15:30;16.20;99.90
15072;DHT22;7635;56.696;13.002;2023-08-06T07:17:57;16.30;99.90
15072;DHT22;7635;56.696;13.002;2023-08-06T07:20:25;16.40;99.90
15072;DHT22;7635;56.696;13.002;2023-08-06T07:22:54;16.50;99.90
15072;DHT22;7635;56.696;13.002;2023-08-06T07:25:21;16.50;99.90
15072;DHT22;7635;56.696;13.002;2023-08-06T07:27:48;16.60;99.90
15072;DHT22;7635;56.696;13.002;2023-08-06T07:30:14;16.60;99.90
15072;DHT22;7635;56.696;13.002;2023-08-06T07:32:41;16.60;99.90
15072;DHT22;7635;56.696;13.002;2023-08-06T07:35:08;16.60;99.90
15072;DHT22;7635;56.696;13.002;2023-08-06T07:37:39;16.70;99.90
15072;DHT22;7635;56.696;13.002;2023-08-06T07:40:07;16.70;99.90
15072;DHT22;7635;56.696;13.002;2023-08-06T07:42:34;16.80;99.90
15072;DHT22;7635;56.696;13.002;2023-08-06T07:45:02;16.80;99.90
15072;DHT22;7635;56.696;13.002;2023-08-06T07:47:29;16.90;99.90
15072;DHT22;7635;56.696;13.002;2023-08-06T07:49:55;16.90;99.90
15072;DHT22;7635;56.696;13.002;2023-08-06T07:52:22;17.00;99.90
15072;DHT22;7635;56.696;13.002;2023-08-06T07:54:50;17.00;99.90
15072;DHT22;7635;56.696;13.002;2023-08-06T07:57:17;17.00;99.90
15072;DHT22;7635;56.696;13.002;2023-08-06T07:59:43;17.10;99.90
15072;DHT22;7635;56.696;13.002;2023-08-06T08:02:10;17.10;99.90
15072;DHT22;7635;56.696;13.002;2023-08-06T08:04:37;17.20;99.90
15072;DHT22;7635;56.696;13.002;2023-08-06T08:07:04;17.30;99.90
15072;DHT22;7635;56.696;13.002;2023-08-06T08:09:31;17.40;99.90
15072;DHT22;7635;56.696;13.002;2023-08-06T08:11:59;17.40;99.90
15072;DHT22;7635;56.696;13.002;2023-08-06T08:14:28;17.40;99.90
15072;DHT22;7635;56.696;13.002;2023-08-06T08:16:58;17.50;99.90
15072;DHT22;7635;56.696;13.002;2023-08-06T08:19:25;17.50;99.90
15072;DHT22;7635;56.696;13.002;2023-08-06T08:21:52;17.60;99.90
15072;DHT22;7635;56.696;13.002;2023-08-06T08:24:19;17.60;99.90
15072;DHT22;7635;56.696;13.002;2023-08-06T08:26:49;17.60;99.90
15072;DHT22;7635;56.696;13.002;2023-08-06T08:29:17;17.60;99.90
15072;DHT22;7635;56.696;13.002;2023-08-06T08:31:43;17.70;99.90
15072;DHT22;7635;56.696;13.002;2023-08-06T08:34:10;17.70;99.90
15072;DHT22;7635;56.696;13.002;2023-08-06T08:36:37;17.70;99.90
15072;DHT22;7635;56.696;13.002;2023-08-06T08:39:03;17.80;99.90
15072;DHT22;7635;56.696;13.002;2023-08-06T08:41:31;17.80;99.90
15072;DHT22;7635;56.696;13.002;2023-08-06T08:43:59;17.90;99.90
15072;DHT22;7635;56.696;13.002;2023-08-06T08:46:29;17.90;99.90
15072;DHT22;7635;56.696;13.002;2023-08-06T08:48:59;17.90;99.90
15072;DHT22;7635;56.696;13.002;2023-08-06T08:51:27;17.90;99.90
15072;DHT22;7635;56.696;13.002;2023-08-06T08:53:54;18.00;99.90
15072;DHT22;7635;56.696;13.002;2023-08-06T08:56:23;18.00;99.90
15072;DHT22;7635;56.696;13.002;2023-08-06T08:58:49;18.00;99.90
15072;DHT22;7635;56.696;13.002;2023-08-06T09:01:19;18.00;99.90
15072;DHT22;7635;56.696;13.002;2023-08-06T09:03:48;18.10;99.90
15072;DHT22;7635;56.696;13.002;2023-08-06T09:06:15;18.10;99.90
15072;DHT22;7635;56.696;13.002;2023-08-06T09:08:49;18.10;99.90
15072;DHT22;7635;56.696;13.002;2023-08-06T09:11:17;18.10;99.90
15072;DHT22;7635;56.696;13.002;2023-08-06T09:13:46;18.20;99.90
15072;DHT22;7635;56.696;13.002;2023-08-06T09:16:13;18.20;99.90
15072;DHT22;7635;56.696;13.002;2023-08-06T09:18:40;18.20;99.90
15072;DHT22;7635;56.696;13.002;2023-08-06T09:21:13;18.20;99.90
15072;DHT22;7635;56.696;13.002;2023-08-06T09:23:40;18.10;99.90
15072;DHT22;7635;56.696;13.002;2023-08-06T09:26:07;18.10;99.90
15072;DHT22;7635;56.696;13.002;2023-08-06T09:28:37;18.10;99.90
15072;DHT22;7635;56.696;13.002;2023-08-06T09:31:05;18.10;99.90
15072;DHT22;7635;56.696;13.002;2023-08-06T09:33:31;18.00;99.90
15072;DHT22;7635;56.696;13.002;2023-08-06T09:36:08;18.00;99.90
15072;DHT22;7635;56.696;13.002;2023-08-06T09:38:38;18.00;99.90
15072;DHT22;7635;56.696;13.002;2023-08-06T09:41:05;18.00;99.90
15072;DHT22;7635;56.696;13.002;2023-08-06T09:43:40;18.00;99.90
15072;DHT22;7635;56.696;13.002;2023-08-06T09:46:11;18.00;99.90
15072;DHT22;7635;56.696;13.002;2023-08-06T09:48:39;17.90;99.90
15072;DHT22;7635;56.696;13.002;2023-08-06T09:51:09;17.90;99.90
15072;DHT22;7635;56.696;13.002;2023-08-06T09:53:37;17.90;99.90
15072;DHT22;7635;56.696;13.002;2023-08-06T09:56:04;17.90;99.90
15072;DHT22;7635;56.696;13.002;2023-08-06T09:58:32;17.90;99.90
15072;DHT22;7635;56.696;13.002;2023-08-06T10:00:59;17.80;99.90
15072;DHT22;7635;56.696;13.002;2023-08-06T10:03:26;17.90;99.90
15072;DHT22;7635;56.696;13.002;2023-08-06T10:05:55;17.80;99.90
15072;DHT22;7635;56.696;13.002;2023-08-06T10:08:23;17.80;99.90
15072;DHT22;7635;56.696;13.002;2023-08-06T10:10:50;17.80;99.90
15072;DHT22;7635;56.696;13.002;2023-08-06T10:13:18;17.80;99.90
15072;DHT22;7635;56.696;13.002;2023-08-06T10:15:47;17.80;99.90
15072;DHT22;7635;56.696;13.002;2023-08-06T10:18:16;17.80;99.90
15072;DHT22;7635;56.696;13.002;2023-08-06T10:20:46;17.80;99.90
15072;DHT22;7635;56.696;13.002;2023-08-06T10:23:13;17.80;99.90
15072;DHT22;7635;56.696;13.002;2023-08-06T10:25:42;17.80;99.90
15072;DHT22;7635;56.696;13.002;2023-08-06T10:28:10;17.80;99.90
15072;DHT22;7635;56.696;13.002;2023-08-06T10:30:42;17.80;99.90
15072;DHT22;7635;56.696;13.002;2023-08-06T10:33:09;17.80;99.90
15072;DHT22;7635;56.696;13.002;2023-08-06T10:35:41;17.80;99.90
15072;DHT22;7635;56.696;13.002;2023-08-06T10:38:10;17.80;99.90
15072;DHT22;7635;56.696;13.002;2023-08-06T10:40:42;17.70;99.90
15072;DHT22;7635;56.696;13.002;2023-08-06T10:43:25;17.70;99.90
15072;DHT22;7635;56.696;13.002;2023-08-06T10:45:52;17.70;99.90
15072;DHT22;7635;56.696;13.002;2023-08-06T10:48:28;17.60;99.90
15072;DHT22;7635;56.696;13.002;2023-08-06T10:50:56;17.60;99.90
15072;DHT22;7635;56.696;13.002;2023-08-06T10:53:23;17.60;99.90
15072;DHT22;7635;56.696;13.002;2023-08-06T10:55:51;17.60;99.90
15072;DHT22;7635;56.696;13.002;2023-08-06T10:58:18;17.50;99.90
15072;DHT22;7635;56.696;13.002;2023-08-06T11:00:45;17.50;99.90
15072;DHT22;7635;56.696;13.002;2023-08-06T11:03:12;17.50;99.90
15072;DHT22;7635;56.696;13.002;2023-08-06T11:05:39;17.50;99.90
